Tinian Mariana Islands, Northern Mariana Islands
Current Conditions -  °F | °C
As of 6:54 AM on Wednesday 22 Oct 2014 (Local Time) from PGSN Reporting Station
Clear Clear  
Wind Chill: 78°   Ceiling: Unl
Heat Index: 81°   Visibility: 10mi
Dew Point: 75°   Wind: 6mph
Humidity: 91%   Direction: 110°ESE
Pressure: 29.81"   Gusts: NA
Location:  15.084°N, 145.652°E
Report Text: PGSN 212054Z 11005KT 10SM CLR 26/24 A2981 RMK AO2 SLP116 60005 T02560240 53005 $
Loading
Personal Weather Stations






























Interactive Weather Map
Tropical Storm Tracking
New forecast layout! Learn more

10-Day Weather Forecast

Advertisements
Track Severe Weather on mobile